Custom file does not exist C:\wdisplay\webfiles\testtags.txt Borgafjälls vädersida - Nearby METAR Reports

Nearby METAR Reports

 

KSJC - San Jose, California, USA
Distance from station: NO 14km
Uppdaterad: 17/10/2021 07:53
Few Clouds
Few Clouds
 Vind frn OSO
Vind: OSO 6 km/h
Temperatur: 19°C
Daggpunkt: -3°C
Luftfuktighet: 22%
Barometer: 1013.9 hPa
Clouds: Few Clouds
Visibility: 16 km
Cloud details: Few Clouds 3962 m
2021/10/17 05:53 KSJC 170553Z 12003KT 10SM FEW130 19/M03 A2994 RMK AO2 SLP137 T01941033 10278 20189 53006
KNUQ - Moffett Nas/Mtn, California, USA
Distance from station: N 14km
Uppdaterad: 22/08/2021 13:40
NOT Current
Genommulet
Genommulet
 Vind frn SSO
Vind: SSO 11 km/h
Temperatur: 16°C
Daggpunkt: 12°C
Luftfuktighet: 77%
Barometer: 1009.8 hPa
Clouds: Genommulet
Visibility: 16 km
Cloud details: Genommulet 549 m
2021/08/22 11:40 KNUQ 221140Z AUTO 16006KT 10SM OVC018 16/12 A2982 RMK AO2
 
KPAO - Palo Alto, California, USA
Distance from station: NNV 23km
Uppdaterad: 17/10/2021 05:47
NOT Current
Klart
Klart
 Vind frn NNV
Vind: NNV 11 km/h
Temperatur: 16°C
Daggpunkt: 10°C
Luftfuktighet: 68%
Barometer: 1013.5 hPa
Clouds: Klart
Visibility: 16 km
2021/10/17 03:47 KPAO 170347Z 34006KT 10SM SKC 16/10 A2993 RMK LAST
KRHV - San Jose/Reid, California, USA
Distance from station: ONO 19km
Uppdaterad: 17/10/2021 06:55
NOT Current
Klart
Klart
 Vind frn calm
Vind: Vindstilla
Temperatur: 17°C
Daggpunkt: 1°C
Luftfuktighet: 34%
Barometer: 1013.9 hPa
Clouds: Klart
Visibility: 16 km
2021/10/17 04:55 KRHV 170455Z 00000KT 10SM SKC 17/01 A2994 RMK LAST
 
KOAK - Oakland, California, USA
Distance from station: NNV 50km
Uppdaterad: 17/10/2021 07:53
Klart
Klart
 Vind frn NO
Vind: NO 6 km/h
Temperatur: 14°C
Daggpunkt: 5°C
Luftfuktighet: 55%
Barometer: 1013.9 hPa
Clouds: Klart
Visibility: 16 km
2021/10/17 05:53 KOAK 170553Z 04003KT 10SM CLR 14/05 A2994 RMK AO2 SLP138 T01390050 10272 20128 53002
KSQL - San Carlos Airpo, California, USA
Distance from station: NV 34km
Uppdaterad: 17/10/2021 08:15
Klart
Klart
 Vind frn calm
Vind: Vindstilla
Temperatur: 16°C
Daggpunkt: 2°C
Luftfuktighet: 39%
Barometer: 1014.2 hPa
Clouds: Klart
Visibility: 16 km
2021/10/17 06:15 KSQL 170615Z AUTO 00000KT 10SM CLR 16/02 A2995 RMK AO2
 
KSFO - San Francisco, California, USA
Distance from station: NV 49km
Uppdaterad: 17/10/2021 07:56
Klart
Klart
 Vind frn VSV
Vind: VSV 7 km/h
Temperatur: 17°C
Daggpunkt: 4°C
Luftfuktighet: 42%
Barometer: 1013.9 hPa
Clouds: Klart
Visibility: 16 km
2021/10/17 05:56 KSFO 170556Z 24004KT 10SM CLR 17/04 A2994 RMK AO2 SLP138 T01670039 10278 20161 53006
KE16 - San Martin, California, USA
Distance from station: OSO 43km
Uppdaterad: 17/10/2021 08:15
vervgande molnigt
vervgande molnigt
 Vind frn OSO
Vind: OSO 7 km/h
Temperatur: 15°C
Daggpunkt: -3°C
Luftfuktighet: 29%
Barometer: 1015.6 hPa
Clouds: vervgande molnigt
Visibility: 16 km
Cloud details: vervgande molnigt 1676 m
2021/10/17 06:15 KE16 170615Z AUTO 12004KT 10SM BKN055 15/M03 A2999 RMK AO2 PWINO PNO
 
KWVI - Watsonville, California, USA
Distance from station: SSO 44km
Uppdaterad: 17/10/2021 07:53
Klart
Klart
 Vind frn NNV
Vind: NNV 6 km/h
Temperatur: 12°C
Daggpunkt: -1°C
Luftfuktighet: 41%
Barometer: 1015.2 hPa
Clouds: Klart
Visibility: 16 km
2021/10/17 05:53 KWVI 170553Z AUTO 34003KT 10SM CLR 12/M01 A2998 RMK AO2 SLP150 T01221006 10250 20111 53007
KHAF - Half Moon Bay, California, USA
Distance from station: VNV 50km
Uppdaterad: 17/10/2021 08:15
Klart
Klart
 Vind frn calm
Vind: Vindstilla
Temperatur: 9°C
Daggpunkt: 1°C
Luftfuktighet: 58%
Barometer: 1014.6 hPa
Clouds: Klart
Visibility: 16 km
2021/10/17 06:15 KHAF 170615Z AUTO 00000KT 10SM CLR 09/01 A2996 RMK AO2
 
KHWD - Hayward, California, USA
Distance from station: N 44km
Uppdaterad: 17/10/2021 07:54
Klart
Klart
 Vind frn calm
Vind: Vindstilla
Temperatur: 14°C
Daggpunkt: 2°C
Luftfuktighet: 44%
Barometer: 1013.5 hPa
Clouds: Klart
Visibility: 16 km
2021/10/17 05:54 KHWD 170554Z AUTO 00000KT 10SM CLR 14/02 A2993 RMK AO2 SLP145 T01440017 10278 20144 53002
KLVK - Livermore, California, USA
Distance from station: NNO 51km
Uppdaterad: 17/10/2021 07:53
Klart
Klart
 Vind frn calm
Vind: Vindstilla
Temperatur: 14°C
Daggpunkt: -1°C
Luftfuktighet: 36%
Barometer: 1013.9 hPa
Clouds: Klart
Visibility: 16 km
2021/10/17 05:53 KLVK 170553Z AUTO 00000KT 10SM CLR 14/M01 A2994 RMK AO2 SLP134 T01441006 10283 20139 53003